Filia Ariea — PIET — position and weather

sailwx.info

Track history (hours):
 
Tides and Currents Weather Stations Pressure Air Temp Water Temp Dewpoint Dewpoint Depression Visibility Wind Speed Wind Dir Waves Ship Positions

Filia Ariea

Last reported at 2018-Feb-14 11:13 UTC. Time now 2018-Feb-19 23:55 UTC.
Position S 26°54' E 153°11'.

Length 90 m; draft 3.8 m.

Type: Ship (hazmat cat A). MMSI: 244662000.

Date/timePositionNaut miles runAvg speedWind from/ knotsBaromVisibWave heightAir tempDewpointWater temp
2018-Feb-14 11:13S 26°54' E 153°11'1010.6
2018-Feb-14 10:19S 27°02' E 153°15'310.1
2018-Feb-14 10:00S 27°04' E 153°18'610.2
2018-Feb-14 09:28S 27°10' E 153°20'510.2
2018-Feb-14 09:00S 27°14' E 153°17'103 2.7
2018-Feb-12 18:30S 25°31' E 153°30'12 9.1
2018-Feb-12 17:12S 25°20' E 153°33'9 9.0
2018-Feb-12 16:11S 25°11' E 153°36'3 9.2
2018-Feb-12 15:50S 25°08' E 153°37'410.2
2018-Feb-12 15:28S 25°04' E 153°37'610.5
2018-Feb-12 14:56S 24°58' E 153°37'2310.3
2018-Feb-12 12:41S 24°36' E 153°33'4 9.5
2018-Feb-12 12:17S 24°32' E 153°33'7 9.5
2018-Feb-12 11:33S 24°25' E 153°32'2 9.5
2018-Feb-12 11:23S 24°23' E 153°31'4 9.8
2018-Feb-12 10:58S 24°19' E 153°31'5 9.9
2018-Feb-12 10:26S 24°14' E 153°30'410.0
2018-Feb-12 10:00S 24°10' E 153°30'510.2
2018-Feb-12 09:30S 24°05' E 153°29'1710.8
2018-Feb-12 07:57S 23°48' E 153°27'910.5
2018-Feb-12 07:07S 23°39' E 153°26'1110.6
2018-Feb-12 06:05S 23°28' E 153°23'110.7
2018-Feb-12 05:58S 23°27' E 153°23'1310.2
2018-Feb-12 04:41S 23°14' E 153°21'310.4
2018-Feb-12 04:22S 23°11' E 153°21'410.5
2018-Feb-12 04:00S 23°07' E 153°20'1110.4
2018-Feb-12 02:56S 22°56' E 153°18'4 9.9
2018-Feb-12 02:30S 22°52' E 153°17'5 9.6
2018-Feb-12 02:00S 22°47' E 153°17'712.9
2018-Feb-12 01:26S 22°40' E 153°15'612.3
2018-Feb-12 00:56S 22°34' E 153°14'512.3
2018-Feb-12 00:30S 22°29' E 153°13'  
Track history (hours):
 
Tides and Currents Weather Stations Pressure Air Temp Water Temp Dewpoint Dewpoint Depression Visibility Wind Speed Wind Dir Waves Ship Positions

Filia Ariea

Last reported at 2018-Feb-14 11:13 UTC. Time now 2018-Feb-19 23:55 UTC.
Position S 26°54' E 153°11'.

Length 90 m; draft 3.8 m.

Type: Ship (hazmat cat A). MMSI: 244662000.

Date/timePositionNaut miles runAvg speedWind from/ knotsBaromVisibWave heightAir tempDewpointWater temp
2018-Feb-14 11:13S 26°54' E 153°11'1010.6
2018-Feb-14 10:19S 27°02' E 153°15'310.1
2018-Feb-14 10:00S 27°04' E 153°18'610.2
2018-Feb-14 09:28S 27°10' E 153°20'510.2
2018-Feb-14 09:00S 27°14' E 153°17'103 2.7
2018-Feb-12 18:30S 25°31' E 153°30'12 9.1
2018-Feb-12 17:12S 25°20' E 153°33'9 9.0
2018-Feb-12 16:11S 25°11' E 153°36'3 9.2
2018-Feb-12 15:50S 25°08' E 153°37'410.2
2018-Feb-12 15:28S 25°04' E 153°37'610.5
2018-Feb-12 14:56S 24°58' E 153°37'2310.3
2018-Feb-12 12:41S 24°36' E 153°33'4 9.5
2018-Feb-12 12:17S 24°32' E 153°33'7 9.5
2018-Feb-12 11:33S 24°25' E 153°32'2 9.5
2018-Feb-12 11:23S 24°23' E 153°31'4 9.8
2018-Feb-12 10:58S 24°19' E 153°31'5 9.9
2018-Feb-12 10:26S 24°14' E 153°30'410.0
2018-Feb-12 10:00S 24°10' E 153°30'510.2
2018-Feb-12 09:30S 24°05' E 153°29'1710.8
2018-Feb-12 07:57S 23°48' E 153°27'910.5
2018-Feb-12 07:07S 23°39' E 153°26'1110.6
2018-Feb-12 06:05S 23°28' E 153°23'110.7
2018-Feb-12 05:58S 23°27' E 153°23'1310.2
2018-Feb-12 04:41S 23°14' E 153°21'310.4
2018-Feb-12 04:22S 23°11' E 153°21'410.5
2018-Feb-12 04:00S 23°07' E 153°20'1110.4
2018-Feb-12 02:56S 22°56' E 153°18'4 9.9
2018-Feb-12 02:30S 22°52' E 153°17'5 9.6
2018-Feb-12 02:00S 22°47' E 153°17'712.9
2018-Feb-12 01:26S 22°40' E 153°15'612.3
2018-Feb-12 00:56S 22°34' E 153°14'512.3
2018-Feb-12 00:30S 22°29' E 153°13'  

Dump ship's entire track history